sensor_id;sensor_type;location;lat;lon;timestamp;P1;durP1;ratioP1;P2;durP2;ratioP2
56319;SDS011;42226;42.382;23.748;2023-05-07T00:01:32;6.82;;;6.22;;
56319;SDS011;42226;42.382;23.748;2023-05-07T00:03:59;6.22;;;5.72;;
56319;SDS011;42226;42.382;23.748;2023-05-07T00:06:26;6.68;;;5.90;;
56319;SDS011;42226;42.382;23.748;2023-05-07T00:08:54;6.63;;;6.05;;
56319;SDS011;42226;42.382;23.748;2023-05-07T00:11:21;6.47;;;5.88;;
56319;SDS011;42226;42.382;23.748;2023-05-07T00:13:48;6.90;;;5.75;;
56319;SDS011;42226;42.382;23.748;2023-05-07T00:16:15;7.20;;;6.60;;
56319;SDS011;42226;42.382;23.748;2023-05-07T00:18:42;6.65;;;5.93;;
56319;SDS011;42226;42.382;23.748;2023-05-07T00:21:09;7.18;;;6.57;;
56319;SDS011;42226;42.382;23.748;2023-05-07T00:23:36;8.00;;;7.20;;
56319;SDS011;42226;42.382;23.748;2023-05-07T00:26:03;7.20;;;6.60;;
56319;SDS011;42226;42.382;23.748;2023-05-07T00:28:30;6.30;;;5.80;;
56319;SDS011;42226;42.382;23.748;2023-05-07T00:30:56;7.53;;;6.50;;
56319;SDS011;42226;42.382;23.748;2023-05-07T00:33:23;6.95;;;6.35;;
56319;SDS011;42226;42.382;23.748;2023-05-07T00:35:51;6.85;;;6.20;;
56319;SDS011;42226;42.382;23.748;2023-05-07T00:38:19;7.55;;;6.85;;
56319;SDS011;42226;42.382;23.748;2023-05-07T00:40:46;7.15;;;6.55;;
56319;SDS011;42226;42.382;23.748;2023-05-07T00:43:13;8.25;;;7.43;;
56319;SDS011;42226;42.382;23.748;2023-05-07T00:45:40;9.18;;;7.60;;
56319;SDS011;42226;42.382;23.748;2023-05-07T00:48:07;9.18;;;8.07;;
56319;SDS011;42226;42.382;23.748;2023-05-07T00:50:33;8.27;;;7.50;;
56319;SDS011;42226;42.382;23.748;2023-05-07T00:53:00;9.48;;;8.57;;
56319;SDS011;42226;42.382;23.748;2023-05-07T00:55:27;8.90;;;8.10;;
56319;SDS011;42226;42.382;23.748;2023-05-07T00:57:55;8.95;;;8.15;;
56319;SDS011;42226;42.382;23.748;2023-05-07T01:00:22;9.00;;;8.10;;
56319;SDS011;42226;42.382;23.748;2023-05-07T01:02:50;8.52;;;7.65;;
56319;SDS011;42226;42.382;23.748;2023-05-07T01:05:17;8.77;;;7.95;;
56319;SDS011;42226;42.382;23.748;2023-05-07T01:07:45;10.05;;;8.77;;
56319;SDS011;42226;42.382;23.748;2023-05-07T01:10:13;10.73;;;9.82;;
56319;SDS011;42226;42.382;23.748;2023-05-07T01:12:40;11.60;;;10.45;;
56319;SDS011;42226;42.382;23.748;2023-05-07T01:15:07;10.85;;;9.73;;
56319;SDS011;42226;42.382;23.748;2023-05-07T01:17:37;12.25;;;11.07;;
56319;SDS011;42226;42.382;23.748;2023-05-07T01:20:06;12.10;;;11.10;;
56319;SDS011;42226;42.382;23.748;2023-05-07T01:22:35;12.65;;;11.55;;
56319;SDS011;42226;42.382;23.748;2023-05-07T01:25:04;12.63;;;11.52;;
56319;SDS011;42226;42.382;23.748;2023-05-07T01:27:35;11.00;;;9.93;;
56319;SDS011;42226;42.382;23.748;2023-05-07T01:30:03;11.20;;;10.30;;
56319;SDS011;42226;42.382;23.748;2023-05-07T01:32:32;11.30;;;10.20;;
56319;SDS011;42226;42.382;23.748;2023-05-07T01:35:05;13.32;;;12.23;;
56319;SDS011;42226;42.382;23.748;2023-05-07T01:37:33;12.20;;;11.18;;
56319;SDS011;42226;42.382;23.748;2023-05-07T01:40:01;14.80;;;13.50;;
56319;SDS011;42226;42.382;23.748;2023-05-07T01:42:29;13.48;;;12.35;;
56319;SDS011;42226;42.382;23.748;2023-05-07T01:44:56;13.35;;;12.15;;
56319;SDS011;42226;42.382;23.748;2023-05-07T01:47:23;14.35;;;13.05;;
56319;SDS011;42226;42.382;23.748;2023-05-07T01:49:51;14.43;;;13.20;;
56319;SDS011;42226;42.382;23.748;2023-05-07T01:52:18;15.52;;;14.07;;
56319;SDS011;42226;42.382;23.748;2023-05-07T01:54:45;15.27;;;13.93;;
56319;SDS011;42226;42.382;23.748;2023-05-07T01:57:12;16.10;;;14.80;;
56319;SDS011;42226;42.382;23.748;2023-05-07T01:59:39;15.50;;;14.20;;
56319;SDS011;42226;42.382;23.748;2023-05-07T02:02:06;16.63;;;15.27;;
56319;SDS011;42226;42.382;23.748;2023-05-07T02:04:32;20.88;;;18.88;;
56319;SDS011;42226;42.382;23.748;2023-05-07T02:06:59;18.08;;;16.30;;
56319;SDS011;42226;42.382;23.748;2023-05-07T02:09:26;16.30;;;14.70;;
56319;SDS011;42226;42.382;23.748;2023-05-07T02:11:53;16.42;;;15.02;;
56319;SDS011;42226;42.382;23.748;2023-05-07T02:14:19;18.10;;;16.58;;
56319;SDS011;42226;42.382;23.748;2023-05-07T02:16:46;15.68;;;14.20;;
56319;SDS011;42226;42.382;23.748;2023-05-07T02:19:13;14.70;;;13.30;;
56319;SDS011;42226;42.382;23.748;2023-05-07T02:21:40;16.08;;;14.57;;
56319;SDS011;42226;42.382;23.748;2023-05-07T02:24:06;16.92;;;15.52;;
56319;SDS011;42226;42.382;23.748;2023-05-07T02:26:33;19.20;;;17.50;;
56319;SDS011;42226;42.382;23.748;2023-05-07T02:29:00;20.50;;;18.60;;
56319;SDS011;42226;42.382;23.748;2023-05-07T02:31:27;21.38;;;19.38;;
56319;SDS011;42226;42.382;23.748;2023-05-07T02:33:53;19.27;;;17.48;;
56319;SDS011;42226;42.382;23.748;2023-05-07T02:36:20;19.02;;;17.20;;
56319;SDS011;42226;42.382;23.748;2023-05-07T02:38:47;19.52;;;17.70;;
56319;SDS011;42226;42.382;23.748;2023-05-07T02:41:14;19.70;;;17.90;;
56319;SDS011;42226;42.382;23.748;2023-05-07T02:43:40;19.52;;;17.75;;
56319;SDS011;42226;42.382;23.748;2023-05-07T02:46:08;18.80;;;17.10;;
56319;SDS011;42226;42.382;23.748;2023-05-07T02:48:35;16.83;;;15.23;;
56319;SDS011;42226;42.382;23.748;2023-05-07T02:51:03;17.30;;;15.60;;
56319;SDS011;42226;42.382;23.748;2023-05-07T02:53:30;17.48;;;15.98;;
56319;SDS011;42226;42.382;23.748;2023-05-07T02:55:58;16.85;;;15.35;;
56319;SDS011;42226;42.382;23.748;2023-05-07T02:58:26;15.95;;;14.45;;
56319;SDS011;42226;42.382;23.748;2023-05-07T03:00:53;15.85;;;14.43;;
56319;SDS011;42226;42.382;23.748;2023-05-07T03:03:20;14.82;;;13.43;;
56319;SDS011;42226;42.382;23.748;2023-05-07T03:05:47;14.63;;;13.38;;
56319;SDS011;42226;42.382;23.748;2023-05-07T03:08:13;15.10;;;13.65;;
56319;SDS011;42226;42.382;23.748;2023-05-07T03:10:40;18.13;;;16.42;;
56319;SDS011;42226;42.382;23.748;2023-05-07T03:13:07;14.23;;;13.02;;
56319;SDS011;42226;42.382;23.748;2023-05-07T03:15:34;14.35;;;13.05;;
56319;SDS011;42226;42.382;23.748;2023-05-07T03:18:00;14.52;;;13.32;;
56319;SDS011;42226;42.382;23.748;2023-05-07T03:20:27;15.50;;;14.20;;
56319;SDS011;42226;42.382;23.748;2023-05-07T03:22:55;15.18;;;13.68;;
56319;SDS011;42226;42.382;23.748;2023-05-07T03:25:22;14.20;;;13.00;;
56319;SDS011;42226;42.382;23.748;2023-05-07T03:27:48;13.60;;;12.20;;
56319;SDS011;42226;42.382;23.748;2023-05-07T03:30:15;16.10;;;14.68;;
56319;SDS011;42226;42.382;23.748;2023-05-07T03:32:42;15.15;;;13.75;;
56319;SDS011;42226;42.382;23.748;2023-05-07T03:35:09;15.88;;;14.48;;
56319;SDS011;42226;42.382;23.748;2023-05-07T03:37:36;15.68;;;14.18;;
56319;SDS011;42226;42.382;23.748;2023-05-07T03:40:04;15.60;;;14.13;;
56319;SDS011;42226;42.382;23.748;2023-05-07T03:42:32;15.85;;;14.32;;
56319;SDS011;42226;42.382;23.748;2023-05-07T03:44:59;15.50;;;14.10;;
56319;SDS011;42226;42.382;23.748;2023-05-07T03:47:26;15.80;;;14.40;;
56319;SDS011;42226;42.382;23.748;2023-05-07T03:49:53;17.08;;;15.45;;
56319;SDS011;42226;42.382;23.748;2023-05-07T03:52:20;18.17;;;16.30;;
56319;SDS011;42226;42.382;23.748;2023-05-07T03:54:51;18.10;;;16.08;;
56319;SDS011;42226;42.382;23.748;2023-05-07T03:57:19;17.30;;;15.50;;
56319;SDS011;42226;42.382;23.748;2023-05-07T03:59:46;17.10;;;15.50;;
56319;SDS011;42226;42.382;23.748;2023-05-07T04:02:13;17.70;;;16.00;;
56319;SDS011;42226;42.382;23.748;2023-05-07T04:04:39;16.83;;;15.32;;
56319;SDS011;42226;42.382;23.748;2023-05-07T04:07:06;17.23;;;15.45;;
56319;SDS011;42226;42.382;23.748;2023-05-07T04:09:33;17.45;;;15.80;;
56319;SDS011;42226;42.382;23.748;2023-05-07T04:12:00;16.63;;;14.95;;
56319;SDS011;42226;42.382;23.748;2023-05-07T04:14:26;17.38;;;15.77;;
56319;SDS011;42226;42.382;23.748;2023-05-07T04:16:53;17.92;;;16.15;;
56319;SDS011;42226;42.382;23.748;2023-05-07T04:19:20;17.05;;;15.45;;
56319;SDS011;42226;42.382;23.748;2023-05-07T04:21:46;17.02;;;15.52;;
56319;SDS011;42226;42.382;23.748;2023-05-07T04:24:13;18.08;;;16.25;;
56319;SDS011;42226;42.382;23.748;2023-05-07T04:26:40;17.75;;;15.85;;
56319;SDS011;42226;42.382;23.748;2023-05-07T04:29:07;17.40;;;15.68;;
56319;SDS011;42226;42.382;23.748;2023-05-07T04:31:33;18.20;;;16.30;;
56319;SDS011;42226;42.382;23.748;2023-05-07T04:34:00;16.48;;;14.93;;
56319;SDS011;42226;42.382;23.748;2023-05-07T04:36:27;17.38;;;15.75;;
56319;SDS011;42226;42.382;23.748;2023-05-07T04:38:54;16.45;;;14.80;;
56319;SDS011;42226;42.382;23.748;2023-05-07T04:41:21;16.77;;;14.95;;
56319;SDS011;42226;42.382;23.748;2023-05-07T04:43:48;15.40;;;13.93;;
56319;SDS011;42226;42.382;23.748;2023-05-07T04:46:15;15.80;;;14.25;;
56319;SDS011;42226;42.382;23.748;2023-05-07T04:48:41;15.27;;;13.73;;
56319;SDS011;42226;42.382;23.748;2023-05-07T04:51:08;15.27;;;13.18;;
56319;SDS011;42226;42.382;23.748;2023-05-07T04:53:35;14.95;;;13.35;;
56319;SDS011;42226;42.382;23.748;2023-05-07T04:56:02;14.23;;;12.73;;
56319;SDS011;42226;42.382;23.748;2023-05-07T04:58:29;14.55;;;13.25;;
56319;SDS011;42226;42.382;23.748;2023-05-07T05:00:57;13.10;;;11.80;;
56319;SDS011;42226;42.382;23.748;2023-05-07T05:03:25;13.25;;;11.95;;
56319;SDS011;42226;42.382;23.748;2023-05-07T05:05:52;11.82;;;10.73;;
56319;SDS011;42226;42.382;23.748;2023-05-07T05:08:18;13.05;;;10.07;;
56319;SDS011;42226;42.382;23.748;2023-05-07T05:10:45;10.88;;;9.80;;
56319;SDS011;42226;42.382;23.748;2023-05-07T05:13:13;10.43;;;9.32;;
56319;SDS011;42226;42.382;23.748;2023-05-07T05:15:40;10.25;;;9.02;;
56319;SDS011;42226;42.382;23.748;2023-05-07T05:18:07;10.27;;;8.90;;
56319;SDS011;42226;42.382;23.748;2023-05-07T05:20:34;9.13;;;8.23;;
56319;SDS011;42226;42.382;23.748;2023-05-07T05:23:01;8.50;;;7.65;;
56319;SDS011;42226;42.382;23.748;2023-05-07T05:25:27;9.20;;;8.40;;
56319;SDS011;42226;42.382;23.748;2023-05-07T05:27:54;10.95;;;8.35;;
56319;SDS011;42226;42.382;23.748;2023-05-07T05:30:21;9.73;;;8.82;;
56319;SDS011;42226;42.382;23.748;2023-05-07T05:32:48;10.45;;;8.13;;
56319;SDS011;42226;42.382;23.748;2023-05-07T05:35:15;8.82;;;7.90;;
56319;SDS011;42226;42.382;23.748;2023-05-07T05:37:42;8.60;;;7.35;;
56319;SDS011;42226;42.382;23.748;2023-05-07T05:40:09;7.68;;;6.97;;
56319;SDS011;42226;42.382;23.748;2023-05-07T05:42:37;6.53;;;5.85;;
56319;SDS011;42226;42.382;23.748;2023-05-07T05:45:04;6.78;;;6.18;;
56319;SDS011;42226;42.382;23.748;2023-05-07T05:47:31;8.43;;;6.13;;
56319;SDS011;42226;42.382;23.748;2023-05-07T05:49:58;7.28;;;6.10;;
56319;SDS011;42226;42.382;23.748;2023-05-07T05:52:24;6.53;;;5.90;;
56319;SDS011;42226;42.382;23.748;2023-05-07T05:54:51;8.52;;;6.38;;
56319;SDS011;42226;42.382;23.748;2023-05-07T05:57:18;7.22;;;5.93;;
56319;SDS011;42226;42.382;23.748;2023-05-07T05:59:45;7.03;;;6.38;;
56319;SDS011;42226;42.382;23.748;2023-05-07T06:02:12;6.13;;;5.53;;
56319;SDS011;42226;42.382;23.748;2023-05-07T06:04:39;7.40;;;5.88;;
56319;SDS011;42226;42.382;23.748;2023-05-07T06:07:07;6.55;;;5.55;;
56319;SDS011;42226;42.382;23.748;2023-05-07T06:09:34;5.68;;;5.07;;
56319;SDS011;42226;42.382;23.748;2023-05-07T06:12:01;5.47;;;4.97;;
56319;SDS011;42226;42.382;23.748;2023-05-07T06:14:28;6.05;;;5.45;;
56319;SDS011;42226;42.382;23.748;2023-05-07T06:16:54;6.10;;;5.30;;
56319;SDS011;42226;42.382;23.748;2023-05-07T06:19:22;7.80;;;5.07;;
56319;SDS011;42226;42.382;23.748;2023-05-07T06:21:49;6.47;;;5.03;;
56319;SDS011;42226;42.382;23.748;2023-05-07T06:24:16;6.35;;;4.82;;
56319;SDS011;42226;42.382;23.748;2023-05-07T06:26:43;5.20;;;4.70;;
56319;SDS011;42226;42.382;23.748;2023-05-07T06:29:09;5.88;;;4.70;;
56319;SDS011;42226;42.382;23.748;2023-05-07T06:31:36;5.20;;;4.70;;
56319;SDS011;42226;42.382;23.748;2023-05-07T06:34:03;5.22;;;4.43;;
56319;SDS011;42226;42.382;23.748;2023-05-07T06:36:30;5.13;;;4.30;;
56319;SDS011;42226;42.382;23.748;2023-05-07T06:38:57;4.85;;;4.15;;
56319;SDS011;42226;42.382;23.748;2023-05-07T06:41:23;4.60;;;4.20;;
56319;SDS011;42226;42.382;23.748;2023-05-07T06:43:51;4.80;;;3.80;;
56319;SDS011;42226;42.382;23.748;2023-05-07T06:46:17;4.68;;;4.03;;
56319;SDS011;42226;42.382;23.748;2023-05-07T06:48:44;5.55;;;3.80;;
56319;SDS011;42226;42.382;23.748;2023-05-07T06:51:11;4.50;;;3.80;;
56319;SDS011;42226;42.382;23.748;2023-05-07T06:53:38;5.93;;;3.75;;
56319;SDS011;42226;42.382;23.748;2023-05-07T06:56:05;5.57;;;3.30;;
56319;SDS011;42226;42.382;23.748;2023-05-07T06:58:32;4.32;;;3.90;;
56319;SDS011;42226;42.382;23.748;2023-05-07T07:00:59;4.72;;;3.47;;
56319;SDS011;42226;42.382;23.748;2023-05-07T07:03:26;4.38;;;3.40;;
56319;SDS011;42226;42.382;23.748;2023-05-07T07:05:53;4.00;;;3.10;;
56319;SDS011;42226;42.382;23.748;2023-05-07T07:08:21;3.65;;;3.35;;
56319;SDS011;42226;42.382;23.748;2023-05-07T07:10:48;3.70;;;3.25;;
56319;SDS011;42226;42.382;23.748;2023-05-07T07:13:15;4.03;;;3.50;;
56319;SDS011;42226;42.382;23.748;2023-05-07T07:15:41;4.80;;;3.50;;
56319;SDS011;42226;42.382;23.748;2023-05-07T07:18:10;7.07;;;3.70;;
56319;SDS011;42226;42.382;23.748;2023-05-07T07:20:36;16.83;;;3.83;;
56319;SDS011;42226;42.382;23.748;2023-05-07T07:23:03;3.50;;;3.20;;
56319;SDS011;42226;42.382;23.748;2023-05-07T07:25:29;6.07;;;3.63;;
56319;SDS011;42226;42.382;23.748;2023-05-07T07:27:56;3.80;;;3.50;;
56319;SDS011;42226;42.382;23.748;2023-05-07T07:30:22;3.83;;;3.50;;
56319;SDS011;42226;42.382;23.748;2023-05-07T07:32:49;4.40;;;3.45;;
56319;SDS011;42226;42.382;23.748;2023-05-07T07:35:16;3.30;;;3.00;;
56319;SDS011;42226;42.382;23.748;2023-05-07T07:37:43;5.35;;;3.50;;
56319;SDS011;42226;42.382;23.748;2023-05-07T07:40:10;4.60;;;3.25;;
56319;SDS011;42226;42.382;23.748;2023-05-07T07:42:37;4.47;;;3.30;;
56319;SDS011;42226;42.382;23.748;2023-05-07T07:45:04;3.60;;;3.30;;
56319;SDS011;42226;42.382;23.748;2023-05-07T07:47:31;4.75;;;3.88;;
56319;SDS011;42226;42.382;23.748;2023-05-07T07:49:58;4.25;;;3.80;;
56319;SDS011;42226;42.382;23.748;2023-05-07T07:52:24;5.00;;;4.00;;
56319;SDS011;42226;42.382;23.748;2023-05-07T07:54:51;4.18;;;3.60;;
56319;SDS011;42226;42.382;23.748;2023-05-07T07:57:17;4.05;;;3.60;;
56319;SDS011;42226;42.382;23.748;2023-05-07T07:59:44;4.38;;;3.95;;
56319;SDS011;42226;42.382;23.748;2023-05-07T08:02:10;6.10;;;4.28;;
56319;SDS011;42226;42.382;23.748;2023-05-07T08:04:37;4.30;;;3.90;;
56319;SDS011;42226;42.382;23.748;2023-05-07T08:07:03;4.63;;;4.20;;
56319;SDS011;42226;42.382;23.748;2023-05-07T08:09:30;4.35;;;3.95;;
56319;SDS011;42226;42.382;23.748;2023-05-07T08:11:57;5.32;;;4.30;;
56319;SDS011;42226;42.382;23.748;2023-05-07T08:14:23;4.80;;;4.20;;
56319;SDS011;42226;42.382;23.748;2023-05-07T08:16:50;5.20;;;4.07;;
56319;SDS011;42226;42.382;23.748;2023-05-07T08:19:17;4.35;;;3.60;;
56319;SDS011;42226;42.382;23.748;2023-05-07T08:21:44;5.07;;;4.00;;
56319;SDS011;42226;42.382;23.748;2023-05-07T08:24:13;4.38;;;3.53;;
56319;SDS011;42226;42.382;23.748;2023-05-07T08:26:40;15.85;;;7.43;;
56319;SDS011;42226;42.382;23.748;2023-05-07T08:29:07;4.78;;;4.07;;
56319;SDS011;42226;42.382;23.748;2023-05-07T08:31:34;4.30;;;3.90;;
56319;SDS011;42226;42.382;23.748;2023-05-07T08:34:00;5.03;;;4.45;;
56319;SDS011;42226;42.382;23.748;2023-05-07T08:36:28;3.53;;;3.13;;
56319;SDS011;42226;42.382;23.748;2023-05-07T08:38:54;3.53;;;3.22;;
56319;SDS011;42226;42.382;23.748;2023-05-07T08:41:21;4.18;;;3.03;;
56319;SDS011;42226;42.382;23.748;2023-05-07T08:43:48;4.28;;;3.88;;
56319;SDS011;42226;42.382;23.748;2023-05-07T08:46:20;8.35;;;3.15;;
56319;SDS011;42226;42.382;23.748;2023-05-07T08:48:50;4.70;;;3.47;;
56319;SDS011;42226;42.382;23.748;2023-05-07T08:51:18;5.00;;;3.40;;
56319;SDS011;42226;42.382;23.748;2023-05-07T08:53:46;3.90;;;3.47;;
56319;SDS011;42226;42.382;23.748;2023-05-07T08:56:15;6.00;;;3.22;;
56319;SDS011;42226;42.382;23.748;2023-05-07T08:58:42;3.20;;;3.00;;
56319;SDS011;42226;42.382;23.748;2023-05-07T09:01:11;4.20;;;3.50;;
56319;SDS011;42226;42.382;23.748;2023-05-07T09:03:40;6.55;;;3.90;;
56319;SDS011;42226;42.382;23.748;2023-05-07T09:06:10;6.13;;;4.18;;
56319;SDS011;42226;42.382;23.748;2023-05-07T09:08:36;3.08;;;2.50;;
56319;SDS011;42226;42.382;23.748;2023-05-07T09:11:03;3.67;;;3.15;;
56319;SDS011;42226;42.382;23.748;2023-05-07T09:13:29;3.10;;;2.50;;
56319;SDS011;42226;42.382;23.748;2023-05-07T09:15:56;3.70;;;2.70;;
56319;SDS011;42226;42.382;23.748;2023-05-07T09:18:24;11.18;;;2.85;;
56319;SDS011;42226;42.382;23.748;2023-05-07T09:20:51;44.80;;;12.10;;
56319;SDS011;42226;42.382;23.748;2023-05-07T09:23:17;11.57;;;4.60;;
56319;SDS011;42226;42.382;23.748;2023-05-07T09:25:45;30.15;;;8.68;;
56319;SDS011;42226;42.382;23.748;2023-05-07T09:28:12;4.32;;;3.08;;
56319;SDS011;42226;42.382;23.748;2023-05-07T09:30:38;6.50;;;3.08;;
56319;SDS011;42226;42.382;23.748;2023-05-07T09:33:05;96.95;;;24.30;;
56319;SDS011;42226;42.382;23.748;2023-05-07T09:35:31;14.18;;;5.95;;
56319;SDS011;42226;42.382;23.748;2023-05-07T09:37:58;4.00;;;2.95;;
56319;SDS011;42226;42.382;23.748;2023-05-07T09:40:27;12.73;;;5.43;;
56319;SDS011;42226;42.382;23.748;2023-05-07T09:42:56;3.53;;;3.03;;
56319;SDS011;42226;42.382;23.748;2023-05-07T09:45:33;3.13;;;2.70;;
56319;SDS011;42226;42.382;23.748;2023-05-07T09:48:00;3.28;;;2.88;;
56319;SDS011;42226;42.382;23.748;2023-05-07T09:50:32;4.57;;;2.75;;
56319;SDS011;42226;42.382;23.748;2023-05-07T09:53:05;2.85;;;2.60;;
56319;SDS011;42226;42.382;23.748;2023-05-07T09:55:34;4.32;;;3.00;;
56319;SDS011;42226;42.382;23.748;2023-05-07T09:58:02;2.80;;;2.60;;
56319;SDS011;42226;42.382;23.748;2023-05-07T10:00:31;2.97;;;2.70;;
56319;SDS011;42226;42.382;23.748;2023-05-07T10:02:59;4.22;;;2.55;;
56319;SDS011;42226;42.382;23.748;2023-05-07T10:05:28;4.20;;;2.70;;
56319;SDS011;42226;42.382;23.748;2023-05-07T10:07:55;3.85;;;3.30;;
56319;SDS011;42226;42.382;23.748;2023-05-07T10:10:23;2.95;;;2.75;;
56319;SDS011;42226;42.382;23.748;2023-05-07T10:12:50;4.43;;;2.85;;
56319;SDS011;42226;42.382;23.748;2023-05-07T10:15:18;3.67;;;3.00;;
56319;SDS011;42226;42.382;23.748;2023-05-07T10:17:45;5.03;;;2.85;;
56319;SDS011;42226;42.382;23.748;2023-05-07T10:20:12;3.97;;;2.95;;
56319;SDS011;42226;42.382;23.748;2023-05-07T10:22:40;3.65;;;2.90;;
56319;SDS011;42226;42.382;23.748;2023-05-07T10:25:15;5.32;;;3.10;;
56319;SDS011;42226;42.382;23.748;2023-05-07T10:27:52;42.85;;;14.07;;
56319;SDS011;42226;42.382;23.748;2023-05-07T10:33:43;3.90;;;3.10;;
56319;SDS011;42226;42.382;23.748;2023-05-07T10:36:12;3.17;;;2.63;;
56319;SDS011;42226;42.382;23.748;2023-05-07T10:38:39;3.42;;;2.60;;
56319;SDS011;42226;42.382;23.748;2023-05-07T10:41:06;4.22;;;2.55;;
56319;SDS011;42226;42.382;23.748;2023-05-07T10:43:39;4.20;;;2.80;;
56319;SDS011;42226;42.382;23.748;2023-05-07T10:46:20;8.75;;;3.95;;
56319;SDS011;42226;42.382;23.748;2023-05-07T10:51:36;3.85;;;2.67;;
56319;SDS011;42226;42.382;23.748;2023-05-07T10:56:37;3.58;;;2.75;;
56319;SDS011;42226;42.382;23.748;2023-05-07T11:01:59;4.15;;;2.78;;
56319;SDS011;42226;42.382;23.748;2023-05-07T11:04:32;4.55;;;3.17;;
56319;SDS011;42226;42.382;23.748;2023-05-07T11:09:54;6.00;;;3.08;;
56319;SDS011;42226;42.382;23.748;2023-05-07T11:15:12;3.20;;;2.90;;
56319;SDS011;42226;42.382;23.748;2023-05-07T11:17:55;2.97;;;2.70;;
56319;SDS011;42226;42.382;23.748;2023-05-07T11:21:07;4.90;;;3.25;;
56319;SDS011;42226;42.382;23.748;2023-05-07T11:26:07;2.97;;;2.67;;
56319;SDS011;42226;42.382;23.748;2023-05-07T11:28:40;3.42;;;3.13;;
56319;SDS011;42226;42.382;23.748;2023-05-07T11:31:09;3.65;;;2.90;;
56319;SDS011;42226;42.382;23.748;2023-05-07T11:36:12;4.80;;;3.05;;
56319;SDS011;42226;42.382;23.748;2023-05-07T11:38:39;4.53;;;3.00;;
56319;SDS011;42226;42.382;23.748;2023-05-07T11:41:06;5.78;;;3.10;;
56319;SDS011;42226;42.382;23.748;2023-05-07T11:43:33;3.08;;;2.78;;
56319;SDS011;42226;42.382;23.748;2023-05-07T11:46:10;3.35;;;2.67;;
56319;SDS011;42226;42.382;23.748;2023-05-07T11:48:39;3.63;;;2.78;;
56319;SDS011;42226;42.382;23.748;2023-05-07T11:51:06;4.22;;;3.00;;
56319;SDS011;42226;42.382;23.748;2023-05-07T11:53:41;2.70;;;2.50;;
56319;SDS011;42226;42.382;23.748;2023-05-07T11:56:09;3.25;;;2.58;;
56319;SDS011;42226;42.382;23.748;2023-05-07T11:58:38;4.53;;;2.83;;
56319;SDS011;42226;42.382;23.748;2023-05-07T12:01:09;3.10;;;2.78;;
56319;SDS011;42226;42.382;23.748;2023-05-07T12:03:40;3.22;;;2.80;;
56319;SDS011;42226;42.382;23.748;2023-05-07T12:06:11;4.78;;;2.67;;
56319;SDS011;42226;42.382;23.748;2023-05-07T12:08:40;3.47;;;2.80;;
56319;SDS011;42226;42.382;23.748;2023-05-07T12:11:08;3.10;;;2.70;;
56319;SDS011;42226;42.382;23.748;2023-05-07T12:13:39;3.08;;;2.78;;
56319;SDS011;42226;42.382;23.748;2023-05-07T12:16:06;3.15;;;2.83;;
56319;SDS011;42226;42.382;23.748;2023-05-07T12:18:34;3.88;;;2.92;;
56319;SDS011;42226;42.382;23.748;2023-05-07T12:21:02;3.80;;;2.55;;
56319;SDS011;42226;42.382;23.748;2023-05-07T12:23:31;3.13;;;2.83;;
56319;SDS011;42226;42.382;23.748;2023-05-07T12:25:59;3.20;;;2.72;;
56319;SDS011;42226;42.382;23.748;2023-05-07T12:28:26;4.38;;;2.75;;
56319;SDS011;42226;42.382;23.748;2023-05-07T12:30:53;4.47;;;2.65;;
56319;SDS011;42226;42.382;23.748;2023-05-07T12:33:23;4.40;;;2.80;;
56319;SDS011;42226;42.382;23.748;2023-05-07T12:35:54;3.72;;;2.83;;
56319;SDS011;42226;42.382;23.748;2023-05-07T12:38:21;3.15;;;2.90;;
56319;SDS011;42226;42.382;23.748;2023-05-07T12:40:49;4.82;;;2.80;;
56319;SDS011;42226;42.382;23.748;2023-05-07T12:43:26;14.27;;;4.35;;
56319;SDS011;42226;42.382;23.748;2023-05-07T12:45:55;4.88;;;2.85;;
56319;SDS011;42226;42.382;23.748;2023-05-07T12:48:24;7.43;;;6.60;;
56319;SDS011;42226;42.382;23.748;2023-05-07T12:50:54;5.13;;;3.10;;
56319;SDS011;42226;42.382;23.748;2023-05-07T12:53:24;4.38;;;2.78;;
56319;SDS011;42226;42.382;23.748;2023-05-07T12:55:54;3.08;;;2.72;;
56319;SDS011;42226;42.382;23.748;2023-05-07T12:58:28;4.32;;;2.38;;
56319;SDS011;42226;42.382;23.748;2023-05-07T13:00:58;3.17;;;2.42;;
56319;SDS011;42226;42.382;23.748;2023-05-07T13:03:35;3.17;;;2.70;;
56319;SDS011;42226;42.382;23.748;2023-05-07T13:06:08;3.15;;;2.60;;
56319;SDS011;42226;42.382;23.748;2023-05-07T13:08:37;5.53;;;4.75;;
56319;SDS011;42226;42.382;23.748;2023-05-07T13:11:08;3.88;;;2.40;;
56319;SDS011;42226;42.382;23.748;2023-05-07T13:13:36;4.63;;;2.90;;
56319;SDS011;42226;42.382;23.748;2023-05-07T13:16:08;4.63;;;2.80;;
56319;SDS011;42226;42.382;23.748;2023-05-07T13:18:37;5.63;;;2.92;;
56319;SDS011;42226;42.382;23.748;2023-05-07T13:21:06;3.65;;;2.80;;
56319;SDS011;42226;42.382;23.748;2023-05-07T13:23:33;2.75;;;2.45;;
56319;SDS011;42226;42.382;23.748;2023-05-07T13:26:00;3.20;;;2.80;;
56319;SDS011;42226;42.382;23.748;2023-05-07T13:28:26;3.72;;;3.03;;
56319;SDS011;42226;42.382;23.748;2023-05-07T13:30:53;5.60;;;2.83;;
56319;SDS011;42226;42.382;23.748;2023-05-07T13:33:19;3.47;;;2.70;;
56319;SDS011;42226;42.382;23.748;2023-05-07T13:35:46;3.10;;;2.78;;
56319;SDS011;42226;42.382;23.748;2023-05-07T13:38:12;3.00;;;2.70;;
56319;SDS011;42226;42.382;23.748;2023-05-07T13:40:40;3.50;;;2.58;;
56319;SDS011;42226;42.382;23.748;2023-05-07T13:43:07;4.60;;;2.60;;
56319;SDS011;42226;42.382;23.748;2023-05-07T13:45:33;4.05;;;2.90;;
56319;SDS011;42226;42.382;23.748;2023-05-07T13:48:00;2.95;;;2.60;;
56319;SDS011;42226;42.382;23.748;2023-05-07T13:50:26;4.38;;;3.03;;
56319;SDS011;42226;42.382;23.748;2023-05-07T13:52:54;4.60;;;2.83;;
56319;SDS011;42226;42.382;23.748;2023-05-07T13:55:21;4.25;;;2.67;;
56319;SDS011;42226;42.382;23.748;2023-05-07T13:57:56;3.55;;;2.65;;
56319;SDS011;42226;42.382;23.748;2023-05-07T14:00:24;4.47;;;2.97;;
56319;SDS011;42226;42.382;23.748;2023-05-07T14:02:52;4.18;;;2.75;;
56319;SDS011;42226;42.382;23.748;2023-05-07T14:05:19;4.25;;;2.60;;
56319;SDS011;42226;42.382;23.748;2023-05-07T14:07:48;4.60;;;2.65;;
56319;SDS011;42226;42.382;23.748;2023-05-07T14:10:17;4.25;;;2.92;;
56319;SDS011;42226;42.382;23.748;2023-05-07T14:12:44;3.20;;;2.60;;
56319;SDS011;42226;42.382;23.748;2023-05-07T14:15:12;5.03;;;2.70;;
56319;SDS011;42226;42.382;23.748;2023-05-07T14:17:39;4.68;;;2.75;;
56319;SDS011;42226;42.382;23.748;2023-05-07T14:20:06;3.47;;;2.88;;
56319;SDS011;42226;42.382;23.748;2023-05-07T14:22:33;3.80;;;2.75;;
56319;SDS011;42226;42.382;23.748;2023-05-07T14:24:59;2.92;;;2.50;;
56319;SDS011;42226;42.382;23.748;2023-05-07T14:27:26;3.25;;;2.92;;
56319;SDS011;42226;42.382;23.748;2023-05-07T14:29:52;4.57;;;2.60;;
56319;SDS011;42226;42.382;23.748;2023-05-07T14:32:19;3.20;;;2.90;;
56319;SDS011;42226;42.382;23.748;2023-05-07T14:34:46;5.32;;;2.90;;
56319;SDS011;42226;42.382;23.748;2023-05-07T14:37:13;3.40;;;2.60;;
56319;SDS011;42226;42.382;23.748;2023-05-07T14:39:40;4.63;;;2.90;;
56319;SDS011;42226;42.382;23.748;2023-05-07T14:42:06;3.17;;;2.60;;
56319;SDS011;42226;42.382;23.748;2023-05-07T14:44:33;4.80;;;2.63;;
56319;SDS011;42226;42.382;23.748;2023-05-07T14:47:05;3.65;;;2.92;;
56319;SDS011;42226;42.382;23.748;2023-05-07T14:49:31;4.25;;;2.92;;
56319;SDS011;42226;42.382;23.748;2023-05-07T14:51:58;3.88;;;3.13;;